KMUI/MUI METAR and TAF weather

Enter ICAO airport designator
Station Type Date Time Source
KMUI METAR 2018/12/12 10:56 UTC NOAA

KMUI 121056Z AUTO 29007G16KT 10SM OVC032 02/M06 A3010 RMK AO2 SLP201 T00151056 $


Station Type Date Time Source
KMUI Decoded METAR 2018/12/12 10:56 UTC NOAA

Muir Army Air Field / Indiantown, PA, United States (KMUI) 40-26N 076-34W
Dec 12, 2018 - 05:56 AM EST / 2018.12.12 1056 UTC
Wind: from the WNW (290 degrees) at 8 MPH (7 KT) gusting to 18 MPH (16 KT):0
Visibility: 10 mile(s):0
Sky conditions: overcast
Temperature: 34.7 F (1.5 C)
Windchill: 28 F (-2 C):1
Dew Point: 21.9 F (-5.6 C)
Relative Humidity: 59%
Pressure (altimeter): 30.1 in. Hg (1019 hPa)
ob: KMUI 121056Z AUTO 29007G16KT 10SM OVC032 02/M06 A3010 RMK AO2 SLP201 T00151056
cycle: 11

Station Type Date Time Source
KMUI TAF 2018/12/12 11:15 UTC NOAA

TAF TAF KMUI 121100Z 1211/1317 29012KT 9999 OVC030 QNH3010INS
BECMG 1308/1309 12006KT 9999 BKN015 QNH3022INS
BECMG 1314/1315 11006KT 6000 -SN BKN007 620079 QNH3033INS TX02/1217Z TNM02/1211Z


Example: see airport list